Time;durP1;ratioP1;P1;durP2;ratioP2;P2;SDS_P1;SDS_P2;PMS_P1;PMS_P2;Temp;Humidity;BMP_temperature;BMP_pressure;BME280_temperature;BME280_humidity;BME280_pressure;Samples;Min_cycle;Max_cycle;Signal;HPM_P1;HPM_P2
2021/04/02 00:02:08;;;;;;;0.00;0.00;;;14.50;66.80;;;;;;4197740;28;20052;-43
2021/04/02 00:04:29;;;;;;;0.00;0.00;;;14.50;66.90;;;;;;4198126;28;20060;-43
2021/04/02 00:06:52;;;;;;;0.00;0.00;;;14.40;67.00;;;;;;4197878;28;20064;-43
2021/04/02 00:09:14;;;;;;;;;;;14.40;66.90;;;;;;4198558;28;20128;-42
2021/04/02 00:11:34;;;;;;;0.00;0.00;;;14.40;67.10;;;;;;4198008;28;19925;-42
2021/04/02 00:13:55;;;;;;;0.00;0.00;;;14.40;67.10;;;;;;4197736;28;20056;-44
2021/04/02 00:16:19;;;;;;;0.00;0.00;;;14.40;67.00;;;;;;4197963;28;20403;-44
2021/04/02 00:18:41;;;;;;;0.00;0.00;;;14.40;67.10;;;;;;4197920;28;20052;-42
2021/04/02 00:21:05;;;;;;;0.30;0.30;;;14.40;67.10;;;;;;4197883;28;20078;-45
2021/04/02 00:23:26;;;;;;;0.00;0.00;;;14.40;67.00;;;;;;4197935;28;20110;-42
2021/04/02 00:25:48;;;;;;;0.00;0.00;;;14.40;67.00;;;;;;4197586;28;20135;-43
2021/04/02 00:28:08;;;;;;;0.00;0.00;;;14.40;67.00;;;;;;4197614;28;20044;-43
2021/04/02 00:30:34;;;;;;;0.00;0.00;;;14.40;67.00;;;;;;4197552;28;20102;-48
2021/04/02 00:32:55;;;;;;;0.00;0.00;;;14.40;67.00;;;;;;4197804;28;20059;-45
2021/04/02 00:35:17;;;;;;;0.00;0.00;;;14.40;67.10;;;;;;4197767;28;20498;-43
2021/04/02 00:37:39;;;;;;;0.00;0.00;;;14.30;67.00;;;;;;4197704;28;20517;-43
2021/04/02 00:39:59;;;;;;;0.10;0.10;;;14.30;67.00;;;;;;4197392;28;20049;-43
2021/04/02 00:42:21;;;;;;;0.00;0.00;;;14.40;67.10;;;;;;4197675;28;20044;-44
2021/04/02 00:44:42;;;;;;;0.00;0.00;;;14.30;67.00;;;;;;4196963;28;20114;-45
2021/04/02 00:47:03;;;;;;;0.00;0.00;;;14.30;68.00;;;;;;4197728;28;20099;-43
2021/04/02 00:49:25;;;;;;;0.00;0.00;;;14.30;67.20;;;;;;4197368;28;20087;-43
2021/04/02 00:51:46;;;;;;;0.00;0.00;;;14.30;67.20;;;;;;4197436;28;20052;-42
2021/04/02 00:54:07;;;;;;;0.00;0.00;;;14.30;67.30;;;;;;4197621;28;20109;-45
2021/04/02 00:56:30;;;;;;;0.00;0.00;;;14.30;67.30;;;;;;4197178;28;20487;-42
2021/04/02 00:58:51;;;;;;;0.00;0.00;;;14.20;67.30;;;;;;4197053;28;20052;-43
2021/04/02 01:01:14;;;;;;;0.00;0.00;;;14.20;67.40;;;;;;4196945;28;20052;-43
2021/04/02 01:03:35;;;;;;;0.00;0.00;;;14.20;67.60;;;;;;4197420;28;20498;-43
2021/04/02 01:06:04;;;;;;;0.00;0.00;;;14.20;67.60;;;;;;4195703;28;20056;-44
2021/04/02 01:08:29;;;;;;;0.00;0.00;;;14.20;67.70;;;;;;4196187;28;20079;-43
2021/04/02 01:10:53;;;;;;;0.00;0.00;;;14.10;67.70;;;;;;4197153;28;20562;-43
2021/04/02 01:13:18;;;;;;;0.00;0.00;;;14.10;67.70;;;;;;4197139;28;20264;-46
2021/04/02 01:15:42;;;;;;;0.00;0.00;;;14.00;67.80;;;;;;4196726;28;20572;-46
2021/04/02 01:18:10;;;;;;;0.00;0.00;;;14.00;67.80;;;;;;4196431;28;20048;-44
2021/04/02 01:20:34;;;;;;;0.00;0.00;;;14.00;67.90;;;;;;4196613;28;20487;-46
2021/04/02 01:23:00;;;;;;;0.00;0.00;;;13.90;68.00;;;;;;4196025;28;20453;-43
2021/04/02 01:25:30;;;;;;;0.00;0.00;;;13.90;68.00;;;;;;4196433;28;20665;-43
2021/04/02 01:28:19;;;;;;;0.00;0.00;;;13.90;68.10;;;;;;4196997;28;20056;-44
2021/04/02 01:30:42;;;;;;;0.15;0.15;;;13.80;68.10;;;;;;4196827;28;20052;-43
2021/04/02 01:33:06;;;;;;;0.00;0.00;;;13.80;68.20;;;;;;4196780;28;20079;-46
2021/04/02 01:35:29;;;;;;;0.00;0.00;;;13.80;68.20;;;;;;4192992;28;20048;-43
2021/04/02 01:37:55;;;;;;;0.00;0.00;;;13.80;68.30;;;;;;4187741;28;20102;-43
2021/04/02 01:40:18;;;;;;;0.00;0.00;;;13.70;68.30;;;;;;4195144;28;20095;-43
2021/04/02 01:42:41;;;;;;;0.00;0.00;;;13.70;68.30;;;;;;4195489;28;20064;-44
2021/04/02 01:45:05;;;;;;;0.00;0.00;;;13.70;68.40;;;;;;4196415;28;20060;-50
2021/04/02 01:47:28;;;;;;;0.00;0.00;;;13.70;68.50;;;;;;4195474;28;20538;-44
2021/04/02 01:49:51;;;;;;;0.00;0.00;;;13.70;68.60;;;;;;4179144;28;20059;-45
2021/04/02 01:52:13;;;;;;;0.00;0.00;;;13.70;68.60;;;;;;4179160;28;20434;-44
2021/04/02 01:54:35;;;;;;;0.00;0.00;;;13.60;68.50;;;;;;4182571;28;20063;-45
2021/04/02 01:56:58;;;;;;;0.00;0.00;;;13.60;68.50;;;;;;4194450;28;20106;-43
2021/04/02 01:59:22;;;;;;;0.00;0.00;;;13.60;68.60;;;;;;4195412;28;20053;-44
2021/04/02 02:01:46;;;;;;;2.00;1.08;;;13.60;68.60;;;;;;4196414;28;20052;-43
2021/04/02 02:04:12;;;;;;;0.00;0.00;;;13.60;68.60;;;;;;4196342;28;20637;-44
2021/04/02 02:06:38;;;;;;;0.00;0.00;;;13.60;68.70;;;;;;4178495;28;20081;-43
2021/04/02 02:09:13;;;;;;;0.00;0.00;;;13.60;68.70;;;;;;4183205;28;20815;-43
2021/04/02 02:11:34;;;;;;;0.00;0.00;;;13.60;68.70;;;;;;4195216;28;20153;-43
2021/04/02 02:14:01;;;;;;;0.22;0.22;;;13.50;68.80;;;;;;4195868;28;20503;-45
2021/04/02 02:16:28;;;;;;;0.00;0.00;;;13.50;68.80;;;;;;4194989;28;20130;-43
2021/04/02 02:18:56;;;;;;;0.00;0.00;;;13.50;68.80;;;;;;4179483;28;20055;-46
2021/04/02 02:21:19;;;;;;;0.00;0.00;;;13.50;68.80;;;;;;4178368;28;20621;-44
2021/04/02 02:23:43;;;;;;;0.00;0.00;;;13.50;68.80;;;;;;4179402;28;20124;-43
2021/04/02 02:26:07;;;;;;;0.00;0.00;;;13.50;68.90;;;;;;4195845;28;20101;-43
2021/04/02 02:28:29;;;;;;;0.00;0.00;;;13.50;68.90;;;;;;4194788;28;20067;-43
2021/04/02 02:30:51;;;;;;;0.00;0.00;;;13.50;69.00;;;;;;4195944;28;20152;-43
2021/04/02 02:33:20;;;;;;;0.00;0.00;;;13.50;69.00;;;;;;4194776;28;20056;-43
2021/04/02 02:35:47;;;;;;;0.00;0.00;;;13.50;69.00;;;;;;4178196;28;20057;-42
2021/04/02 02:38:10;;;;;;;0.00;0.00;;;13.50;69.00;;;;;;4178285;28;20214;-46
2021/04/02 02:40:35;;;;;;;0.00;0.00;;;13.50;69.90;;;;;;4195721;28;20446;-43
2021/04/02 02:42:57;;;;;;;0.00;0.00;;;13.50;69.00;;;;;;4195886;28;20048;-43
2021/04/02 02:45:20;;;;;;;0.00;0.00;;;13.40;69.00;;;;;;4194516;28;20147;-45
2021/04/02 02:47:42;;;;;;;0.57;0.57;;;13.40;68.90;;;;;;4194264;28;20808;-43
2021/04/02 02:50:05;;;;;;;0.00;0.00;;;13.40;69.00;;;;;;4195546;28;20071;-43
2021/04/02 02:52:27;;;;;;;0.00;0.00;;;13.40;68.90;;;;;;4195728;28;20139;-43
2021/04/02 02:54:52;;;;;;;0.00;0.00;;;13.40;69.00;;;;;;4193922;28;20048;-43
2021/04/02 02:57:17;;;;;;;0.00;0.00;;;13.40;69.20;;;;;;4194595;28;20052;-43
2021/04/02 02:59:40;;;;;;;0.00;0.00;;;13.40;69.20;;;;;;4194388;28;20048;-43
2021/04/02 03:02:09;;;;;;;0.00;0.00;;;13.50;69.20;;;;;;4179055;28;20061;-50
2021/04/02 03:04:31;;;;;;;0.00;0.00;;;13.40;69.20;;;;;;4187010;28;20868;-42
2021/04/02 03:06:57;;;;;;;0.00;0.00;;;13.40;69.10;;;;;;4194381;28;20075;-50
2021/04/02 03:09:22;;;;;;;0.40;0.40;;;13.40;69.20;;;;;;4195445;28;20084;-48
2021/04/02 03:11:45;;;;;;;0.00;0.00;;;13.40;69.20;;;;;;4195664;28;20057;-42
2021/04/02 03:14:07;;;;;;;0.00;0.00;;;13.40;69.30;;;;;;4195214;28;20061;-43
2021/04/02 03:16:30;;;;;;;0.20;0.20;;;13.40;69.30;;;;;;4194259;28;20098;-43
2021/04/02 03:18:57;;;;;;;0.00;0.00;;;13.40;69.30;;;;;;4177951;28;20553;-43
2021/04/02 03:21:20;;;;;;;0.00;0.00;;;13.40;69.30;;;;;;4179010;28;20064;-43
2021/04/02 03:23:47;;;;;;;0.00;0.00;;;13.40;69.30;;;;;;4182175;28;20056;-44
2021/04/02 03:26:09;;;;;;;0.00;0.00;;;13.40;69.30;;;;;;4194175;28;20059;-43
2021/04/02 03:28:33;;;;;;;0.00;0.00;;;13.40;69.30;;;;;;4194189;28;20118;-44
2021/04/02 03:30:56;;;;;;;0.00;0.00;;;13.40;69.30;;;;;;4195294;28;20083;-44
2021/04/02 03:33:26;;;;;;;0.00;0.00;;;13.40;69.20;;;;;;4194118;28;20052;-43
2021/04/02 03:36:12;;;;;;;0.00;0.00;;;13.40;69.20;;;;;;4195117;28;20054;-43
2021/04/02 03:38:37;;;;;;;0.00;0.00;;;13.40;69.20;;;;;;4178660;28;20056;-45
2021/04/02 03:41:01;;;;;;;0.30;0.30;;;13.40;69.30;;;;;;4177867;28;20124;-43
2021/04/02 03:43:26;;;;;;;0.55;0.55;;;13.40;69.20;;;;;;4179444;28;20060;-43
2021/04/02 03:45:50;;;;;;;0.00;0.00;;;13.30;69.10;;;;;;4194149;28;20057;-45
2021/04/02 03:48:14;;;;;;;0.00;0.00;;;13.30;69.00;;;;;;4194209;28;20060;-43
2021/04/02 03:50:38;;;;;;;0.00;0.00;;;13.30;69.00;;;;;;4195212;28;20140;-45
2021/04/02 03:53:08;;;;;;;0.75;0.75;;;13.30;69.00;;;;;;4194133;28;20045;-44
2021/04/02 03:55:35;;;;;;;0.00;0.00;;;13.30;68.90;;;;;;4177516;28;20081;-44
2021/04/02 03:58:00;;;;;;;0.10;0.10;;;13.40;69.00;;;;;;4192253;28;20075;-48
2021/04/02 04:00:26;;;;;;;0.00;0.00;;;13.30;69.00;;;;;;4188374;28;20087;-43
2021/04/02 04:03:03;;;;;;;0.00;0.00;;;13.40;69.00;;;;;;4194139;28;20052;-43
2021/04/02 04:05:28;;;;;;;0.00;0.00;;;13.40;69.10;;;;;;4181342;28;20057;-44
2021/04/02 04:07:51;;;;;;;0.00;0.00;;;13.30;69.00;;;;;;4193799;28;20065;-43
2021/04/02 04:10:15;;;;;;;0.00;0.00;;;13.30;69.10;;;;;;4194168;28;20575;-47
2021/04/02 04:12:37;;;;;;;0.00;0.00;;;13.40;69.20;;;;;;4195109;28;20094;-43
2021/04/02 04:15:03;;;;;;;0.00;0.00;;;13.40;69.20;;;;;;4191008;28;20063;-45
2021/04/02 04:17:31;;;;;;;0.00;0.00;;;13.40;69.10;;;;;;4177408;28;20053;-43
2021/04/02 04:20:02;;;;;;;0.00;0.00;;;13.40;69.20;;;;;;4180531;28;20059;-42
2021/04/02 04:22:29;;;;;;;0.00;0.00;;;13.40;69.20;;;;;;4192206;28;20080;-43
2021/04/02 04:24:55;;;;;;;0.00;0.00;;;13.40;69.20;;;;;;4196851;28;20056;-42
2021/04/02 04:27:17;;;;;;;0.10;0.10;;;13.40;69.10;;;;;;4197959;28;20460;-44
2021/04/02 04:29:41;;;;;;;0.35;0.35;;;13.40;69.20;;;;;;4198111;28;20722;-43
2021/04/02 04:32:05;;;;;;;0.00;0.00;;;13.40;69.20;;;;;;4197611;28;20044;-41
2021/04/02 04:34:27;;;;;;;0.00;0.00;;;13.40;69.20;;;;;;4197381;28;20446;-43
2021/04/02 04:36:51;;;;;;;0.10;0.10;;;13.40;69.20;;;;;;4197846;28;20102;-43
2021/04/02 04:39:12;;;;;;;0.00;0.00;;;13.40;69.20;;;;;;4197634;28;20052;-43
2021/04/02 04:41:35;;;;;;;0.00;0.00;;;13.40;69.20;;;;;;4196730;28;20084;-43
2021/04/02 04:43:57;;;;;;;0.00;0.00;;;13.40;69.20;;;;;;4197690;28;20044;-44
2021/04/02 04:46:18;;;;;;;0.20;0.20;;;13.40;69.20;;;;;;4197261;28;20059;-43
2021/04/02 04:48:39;;;;;;;0.00;0.00;;;13.40;69.10;;;;;;4197533;28;20074;-43
2021/04/02 04:51:05;;;;;;;0.00;0.00;;;13.30;69.20;;;;;;4196633;28;20487;-44
2021/04/02 04:53:31;;;;;;;0.00;0.00;;;13.40;69.20;;;;;;4197304;28;20041;-44
2021/04/02 04:55:55;;;;;;;1.77;1.25;;;13.30;69.10;;;;;;4197716;28;20056;-44
2021/04/02 04:58:18;;;;;;;0.00;0.00;;;13.30;69.20;;;;;;4197511;28;20088;-43
2021/04/02 05:00:41;;;;;;;0.00;0.00;;;13.30;69.10;;;;;;4196472;28;20057;-45
2021/04/02 05:03:05;;;;;;;0.00;0.00;;;13.30;69.90;;;;;;4197169;28;20055;-46
2021/04/02 05:05:30;;;;;;;0.00;0.00;;;13.30;69.00;;;;;;4197245;28;20048;-43
2021/04/02 05:07:54;;;;;;;0.00;0.00;;;13.30;68.90;;;;;;4181645;28;20071;-43
2021/04/02 05:10:18;;;;;;;0.00;0.00;;;13.30;68.80;;;;;;4195574;28;20507;-44
2021/04/02 05:12:40;;;;;;;0.00;0.00;;;13.30;68.80;;;;;;4197180;28;20076;-43
2021/04/02 05:15:04;;;;;;;0.00;0.00;;;13.30;68.80;;;;;;4193420;28;20049;-44
2021/04/02 05:17:27;;;;;;;0.00;0.00;;;13.30;68.80;;;;;;4180706;28;20126;-44
2021/04/02 05:19:50;;;;;;;0.00;0.00;;;13.30;68.80;;;;;;4180539;28;20144;-43
2021/04/02 05:22:11;;;;;;;0.00;0.00;;;13.30;68.90;;;;;;4180651;28;20053;-43
2021/04/02 05:24:32;;;;;;;0.00;0.00;;;13.30;68.80;;;;;;4195833;28;20507;-44
2021/04/02 05:26:54;;;;;;;0.00;0.00;;;13.30;69.30;;;;;;4197483;28;20874;-43
2021/04/02 05:29:15;;;;;;;0.00;0.00;;;13.30;69.40;;;;;;4196652;28;20059;-43
2021/04/02 05:31:36;;;;;;;0.00;0.00;;;13.30;69.40;;;;;;4195657;28;20103;-44
2021/04/02 05:34:12;;;;;;;0.00;0.00;;;13.30;69.40;;;;;;4196394;28;20049;-44
2021/04/02 05:36:34;;;;;;;0.00;0.00;;;13.30;69.30;;;;;;4196927;28;20059;-43
2021/04/02 05:38:54;;;;;;;0.00;0.00;;;13.30;70.10;;;;;;4196585;28;20133;-44
2021/04/02 05:41:22;;;;;;;13.25;1.55;;;13.30;70.60;;;;;;4196652;28;20305;-44
2021/04/02 05:43:46;;;;;;;0.00;0.00;;;13.30;70.90;;;;;;4196365;28;20131;-43
2021/04/02 05:46:09;;;;;;;0.00;0.00;;;13.40;70.80;;;;;;4195489;28;20052;-43
2021/04/02 05:48:32;;;;;;;0.57;0.57;;;13.40;70.50;;;;;;4196655;28;20052;-44
2021/04/02 05:50:55;;;;;;;0.57;0.52;;;13.40;70.60;;;;;;4195946;28;20833;-46
2021/04/02 05:53:17;;;;;;;0.43;0.43;;;13.40;70.40;;;;;;4196065;28;20063;-44
2021/04/02 05:55:40;;;;;;;0.00;0.00;;;13.30;70.30;;;;;;4196296;28;20078;-43
2021/04/02 05:58:03;;;;;;;0.00;0.00;;;13.30;70.50;;;;;;4195674;28;20560;-43
2021/04/02 06:00:26;;;;;;;0.00;0.00;;;13.30;70.50;;;;;;4189409;28;20052;-43
2021/04/02 06:02:50;;;;;;;0.00;0.00;;;13.30;70.20;;;;;;4194361;28;20407;-44
2021/04/02 06:05:11;;;;;;;0.00;0.00;;;13.30;70.30;;;;;;4189311;28;20110;-45
2021/04/02 06:07:33;;;;;;;0.00;0.00;;;13.30;70.10;;;;;;4184955;28;20134;-43
2021/04/02 06:09:54;;;;;;;1.02;1.02;;;13.30;69.60;;;;;;4189013;28;20088;-43
2021/04/02 06:12:14;;;;;;;1.45;0.93;;;13.20;69.70;;;;;;4187084;28;20053;-43
2021/04/02 06:14:35;;;;;;;0.00;0.00;;;13.20;69.70;;;;;;4193542;28;20045;-44
2021/04/02 06:16:57;;;;;;;0.00;0.00;;;13.20;69.50;;;;;;4196351;28;20049;-44
2021/04/02 06:19:19;;;;;;;0.00;0.00;;;13.20;69.70;;;;;;4179860;28;20045;-43
2021/04/02 06:21:48;;;;;;;0.00;0.00;;;13.20;69.70;;;;;;4179316;28;20083;-45
2021/04/02 06:24:13;;;;;;;0.00;0.00;;;13.20;69.70;;;;;;4193136;28;20048;-44
2021/04/02 06:26:34;;;;;;;0.00;0.00;;;13.20;69.70;;;;;;4195196;28;20067;-43
2021/04/02 06:28:55;;;;;;;0.00;0.00;;;13.20;69.40;;;;;;4195804;28;20442;-43
2021/04/02 06:31:17;;;;;;;0.00;0.00;;;13.10;69.10;;;;;;4196075;28;20057;-43
2021/04/02 06:33:41;;;;;;;0.00;0.00;;;13.10;69.00;;;;;;4195142;28;20487;-44
2021/04/02 06:36:02;;;;;;;0.00;0.00;;;13.10;68.90;;;;;;4195651;28;20059;-46
2021/04/02 06:38:29;;;;;;;0.20;0.20;;;13.10;68.70;;;;;;4195572;28;20048;-44
2021/04/02 06:40:58;;;;;;;0.00;0.00;;;13.10;68.60;;;;;;4179404;28;20052;-44
2021/04/02 06:43:20;;;;;;;0.08;0.08;;;13.10;68.30;;;;;;4191640;28;20123;-46
2021/04/02 06:45:41;;;;;;;0.00;0.00;;;13.10;67.80;;;;;;4195660;28;20106;-43
2021/04/02 06:48:10;;;;;;;0.00;0.00;;;13.10;67.70;;;;;;4195762;28;20052;-43
2021/04/02 06:50:32;;;;;;;0.00;0.00;;;13.10;67.70;;;;;;4195594;28;20453;-44
2021/04/02 06:52:54;;;;;;;0.00;0.00;;;13.10;67.60;;;;;;4195234;28;20414;-42
2021/04/02 06:55:16;;;;;;;0.00;0.00;;;13.10;67.40;;;;;;4181143;28;20053;-44
2021/04/02 06:57:38;;;;;;;0.00;0.00;;;13.10;67.80;;;;;;4195593;28;20131;-44
2021/04/02 06:59:59;;;;;;;0.00;0.00;;;13.10;67.70;;;;;;4194775;28;20060;-49
2021/04/02 07:02:21;;;;;;;;;;;13.10;67.50;;;;;;4196239;28;20048;-51
2021/04/02 07:04:45;;;;;;;0.00;0.00;;;13.10;67.50;;;;;;4195719;28;19920;-44
2021/04/02 07:07:08;;;;;;;0.00;0.00;;;13.10;67.40;;;;;;4195439;28;20384;-44
2021/04/02 07:09:31;;;;;;;0.00;0.00;;;13.10;67.30;;;;;;4195430;28;20080;-46
2021/04/02 07:11:55;;;;;;;0.00;0.00;;;13.10;67.20;;;;;;4195894;28;20049;-45
2021/04/02 07:14:19;;;;;;;0.00;0.00;;;13.10;67.10;;;;;;4195516;28;20052;-44
2021/04/02 07:16:41;;;;;;;0.00;0.00;;;13.10;67.80;;;;;;4195710;28;20053;-44
2021/04/02 07:19:03;;;;;;;0.00;0.00;;;13.10;66.90;;;;;;4195286;28;20059;-44
2021/04/02 07:21:24;;;;;;;0.00;0.00;;;13.10;66.80;;;;;;4194639;28;20126;-43
2021/04/02 07:23:46;;;;;;;0.00;0.00;;;13.10;66.80;;;;;;4195097;28;20051;-48
2021/04/02 07:26:08;;;;;;;0.00;0.00;;;13.10;66.60;;;;;;4195535;28;20057;-45
2021/04/02 07:28:29;;;;;;;0.00;0.00;;;13.10;66.60;;;;;;4195669;28;20060;-46
2021/04/02 07:30:52;;;;;;;0.00;0.00;;;13.10;66.60;;;;;;4195364;28;20060;-44
2021/04/02 07:33:15;;;;;;;0.00;0.00;;;13.10;66.50;;;;;;4195650;28;20541;-45
2021/04/02 07:35:37;;;;;;;0.00;0.00;;;13.10;66.40;;;;;;4195458;28;20057;-45
2021/04/02 07:38:00;;;;;;;0.10;0.10;;;13.20;66.40;;;;;;4195313;28;20056;-45
2021/04/02 07:40:25;;;;;;;0.65;0.65;;;13.10;66.20;;;;;;4195408;28;20053;-43
2021/04/02 07:42:51;;;;;;;0.00;0.00;;;13.10;66.00;;;;;;4195502;28;20515;-44
2021/04/02 07:45:12;;;;;;;0.22;0.22;;;13.20;66.00;;;;;;4195362;28;20053;-44
2021/04/02 07:47:34;;;;;;;7.78;1.85;;;13.10;65.80;;;;;;4195193;28;20055;-45
2021/04/02 07:49:58;;;;;;;0.00;0.00;;;13.20;65.80;;;;;;4195392;28;20515;-44
2021/04/02 07:52:30;;;;;;;0.00;0.00;;;13.20;65.80;;;;;;4195229;28;20048;-44
2021/04/02 07:55:06;;;;;;;0.00;0.00;;;13.20;65.70;;;;;;4183110;28;20569;-43
2021/04/02 07:57:28;;;;;;;0.00;0.00;;;13.10;65.60;;;;;;4198366;28;20061;-44
2021/04/02 07:59:49;;;;;;;0.10;0.10;;;13.10;65.50;;;;;;4192363;28;20110;-44
2021/04/02 08:02:12;;;;;;;1.05;1.00;;;13.10;65.50;;;;;;4198293;28;20048;-44
2021/04/02 08:04:37;;;;;;;0.00;0.00;;;13.10;65.50;;;;;;4198341;28;20049;-46
2021/04/02 08:07:00;;;;;;;0.00;0.00;;;13.10;65.50;;;;;;4198173;28;20139;-44
2021/04/02 08:09:22;;;;;;;0.00;0.00;;;13.20;65.40;;;;;;4181811;28;20056;-45
2021/04/02 08:11:46;;;;;;;0.00;0.00;;;13.10;65.30;;;;;;4181782;28;20514;-43
2021/04/02 08:14:09;;;;;;;0.00;0.00;;;13.10;65.30;;;;;;4195611;28;20419;-44
2021/04/02 08:16:49;;;;;;;0.00;0.00;;;13.20;65.40;;;;;;4198302;28;20482;-43
2021/04/02 08:19:12;;;;;;;0.00;0.00;;;13.10;65.30;;;;;;4197830;28;20052;-44
2021/04/02 08:21:34;;;;;;;0.00;0.00;;;13.20;65.30;;;;;;4198119;28;20558;-45
2021/04/02 08:23:57;;;;;;;0.00;0.00;;;13.20;65.30;;;;;;4197868;28;20053;-45
2021/04/02 08:26:18;;;;;;;0.00;0.00;;;13.20;65.20;;;;;;4198023;28;20048;-47
2021/04/02 08:28:39;;;;;;;0.00;0.00;;;13.20;65.10;;;;;;4197803;28;20131;-44
2021/04/02 08:31:01;;;;;;;0.00;0.00;;;13.20;65.00;;;;;;4198049;28;20056;-46
2021/04/02 08:33:23;;;;;;;0.00;0.00;;;13.20;64.90;;;;;;4197592;28;20051;-44
2021/04/02 08:35:46;;;;;;;0.00;0.00;;;13.20;64.70;;;;;;4197270;28;20054;-45
2021/04/02 08:38:07;;;;;;;0.00;0.00;;;13.20;64.60;;;;;;4197129;28;20063;-45
2021/04/02 08:40:29;;;;;;;0.00;0.00;;;13.20;64.60;;;;;;4197943;28;20140;-43
2021/04/02 08:42:51;;;;;;;0.00;0.00;;;13.20;64.40;;;;;;4197326;28;20502;-44
2021/04/02 08:45:12;;;;;;;;;;;13.30;64.10;;;;;;4197720;28;20127;-44
2021/04/02 08:47:37;;;;;;;0.00;0.00;;;13.80;62.90;;;;;;4193973;28;19943;-43
2021/04/02 08:49:58;;;;;;;0.08;0.08;;;14.70;60.30;;;;;;4197415;28;20060;-45
2021/04/02 08:52:21;;;;;;;0.00;0.00;;;15.70;57.30;;;;;;4197346;28;20130;-52
2021/04/02 08:54:45;;;;;;;0.17;0.17;;;16.60;55.50;;;;;;4195336;28;20067;-45
2021/04/02 08:57:09;;;;;;;4.00;1.63;;;17.40;53.00;;;;;;4196483;28;20064;-46
2021/04/02 08:59:31;;;;;;;0.00;0.00;;;18.00;51.20;;;;;;4197059;28;20060;-46
2021/04/02 09:01:53;;;;;;;0.00;0.00;;;18.40;50.10;;;;;;4192756;28;20043;-50
2021/04/02 09:04:20;;;;;;;0.00;0.00;;;18.90;49.10;;;;;;4196173;28;20131;-50
2021/04/02 09:06:42;;;;;;;0.35;0.35;;;19.00;48.60;;;;;;4195557;28;20740;-48
2021/04/02 09:09:04;;;;;;;0.40;0.40;;;18.90;48.90;;;;;;4196237;28;20143;-50
2021/04/02 09:11:27;;;;;;;0.20;0.20;;;18.80;49.10;;;;;;4197233;28;20063;-44
2021/04/02 09:13:50;;;;;;;0.28;0.28;;;18.60;49.70;;;;;;4196200;28;20044;-49
2021/04/02 09:16:14;;;;;;;0.90;0.90;;;18.30;50.30;;;;;;4196676;28;20415;-48
2021/04/02 09:18:44;;;;;;;0.00;0.00;;;18.10;50.90;;;;;;4193685;28;20495;-44
2021/04/02 09:21:06;;;;;;;0.57;0.57;;;17.80;51.40;;;;;;4196761;28;20052;-44
2021/04/02 09:23:27;;;;;;;0.00;0.00;;;17.60;52.10;;;;;;4195941;28;20068;-44
2021/04/02 09:25:50;;;;;;;0.10;0.10;;;17.40;52.60;;;;;;4196616;28;20076;-44
2021/04/02 09:28:11;;;;;;;0.00;0.00;;;17.10;53.10;;;;;;4196848;28;20118;-44
2021/04/02 09:30:32;;;;;;;0.00;0.00;;;16.90;53.60;;;;;;4195540;28;20041;-45
2021/04/02 09:32:53;;;;;;;0.00;0.00;;;16.70;54.00;;;;;;4196310;28;20044;-47
2021/04/02 09:35:14;;;;;;;0.43;0.43;;;16.60;54.30;;;;;;4196535;28;20064;-46
2021/04/02 09:37:36;;;;;;;0.15;0.15;;;16.40;54.80;;;;;;4195655;28;20761;-45
2021/04/02 09:39:58;;;;;;;0.10;0.10;;;16.30;55.20;;;;;;4195147;28;20132;-44
2021/04/02 09:42:19;;;;;;;0.10;0.10;;;16.20;55.40;;;;;;4196255;28;20710;-44
2021/04/02 09:44:40;;;;;;;0.20;0.20;;;16.30;55.10;;;;;;4196374;28;20123;-46
2021/04/02 09:47:03;;;;;;;0.20;0.20;;;16.40;54.90;;;;;;4196591;28;20056;-45
2021/04/02 09:49:24;;;;;;;0.00;0.00;;;16.50;54.80;;;;;;4196046;28;20063;-45
2021/04/02 09:51:47;;;;;;;0.05;0.05;;;16.40;54.60;;;;;;4196018;28;20670;-44
2021/04/02 09:54:10;;;;;;;0.00;0.00;;;16.40;54.70;;;;;;4196077;28;20663;-45
2021/04/02 09:56:32;;;;;;;0.10;0.10;;;16.20;54.50;;;;;;4196319;28;20410;-45
2021/04/02 09:58:54;;;;;;;0.10;0.10;;;16.20;55.10;;;;;;4196429;28;20060;-43
2021/04/02 10:01:15;;;;;;;0.00;0.00;;;16.20;55.00;;;;;;4195536;28;20048;-44
2021/04/02 10:03:36;;;;;;;;;;;16.20;55.00;;;;;;4196053;28;20522;-44
2021/04/02 10:05:57;;;;;;;0.05;0.05;;;16.20;55.00;;;;;;4193192;28;19981;-45
2021/04/02 10:08:19;;;;;;;0.20;0.20;;;16.20;54.80;;;;;;4195392;28;20057;-44
2021/04/02 10:10:40;;;;;;;0.00;0.00;;;16.20;54.80;;;;;;4196062;28;20060;-44
2021/04/02 10:13:02;;;;;;;0.00;0.00;;;16.20;54.90;;;;;;4195601;28;20084;-44
2021/04/02 10:15:22;;;;;;;0.00;0.00;;;16.20;55.10;;;;;;4195540;28;20459;-45
2021/04/02 10:17:43;;;;;;;0.00;0.00;;;16.10;55.00;;;;;;4194536;28;20474;-45
2021/04/02 10:20:05;;;;;;;2.17;1.17;;;16.00;55.20;;;;;;4195497;28;20484;-45
2021/04/02 10:22:26;;;;;;;0.00;0.00;;;16.00;55.60;;;;;;4194628;28;20072;-44
2021/04/02 10:24:47;;;;;;;0.00;0.00;;;16.00;55.70;;;;;;4195936;28;20102;-44
2021/04/02 10:27:09;;;;;;;0.00;0.00;;;16.10;55.80;;;;;;4195652;28;20064;-43
2021/04/02 10:29:31;;;;;;;0.35;0.35;;;16.20;55.30;;;;;;4178987;28;20081;-44
2021/04/02 10:31:52;;;;;;;0.20;0.20;;;16.30;55.10;;;;;;4194053;28;20137;-46
2021/04/02 10:34:14;;;;;;;0.00;0.00;;;16.20;55.10;;;;;;4192570;28;20056;-44
2021/04/02 10:36:35;;;;;;;0.22;0.22;;;16.20;55.00;;;;;;4194359;28;20060;-45
2021/04/02 10:39:01;;;;;;;0.00;0.00;;;16.10;55.20;;;;;;4194312;28;20158;-44
2021/04/02 10:41:22;;;;;;;0.47;0.47;;;16.00;55.30;;;;;;4195747;28;20419;-44
2021/04/02 10:43:44;;;;;;;0.00;0.00;;;15.90;55.50;;;;;;4195572;28;20648;-46
2021/04/02 10:46:05;;;;;;;0.00;0.00;;;15.80;55.70;;;;;;4194609;28;20056;-49
2021/04/02 10:48:26;;;;;;;;;;;15.80;55.90;;;;;;4195891;28;20439;-46
2021/04/02 10:50:48;;;;;;;0.00;0.00;;;15.90;55.70;;;;;;4195784;28;19964;-44
2021/04/02 10:53:10;;;;;;;11.07;1.05;;;15.90;55.60;;;;;;4194093;28;20136;-45
2021/04/02 10:55:31;;;;;;;1.17;0.38;;;16.00;55.40;;;;;;4195104;28;20048;-43
2021/04/02 10:57:53;;;;;;;0.63;0.63;;;16.00;55.30;;;;;;4195437;28;20048;-46
2021/04/02 11:00:17;;;;;;;1.08;0.47;;;15.90;55.20;;;;;;4194038;28;20055;-46
2021/04/02 11:02:38;;;;;;;1.65;1.17;;;15.90;55.30;;;;;;4194826;28;20053;-45
2021/04/02 11:04:59;;;;;;;17.98;1.08;;;15.80;55.30;;;;;;4195235;28;20060;-46
2021/04/02 11:07:20;;;;;;;0.00;0.00;;;15.80;55.60;;;;;;4194339;28;20406;-44
2021/04/02 11:09:41;;;;;;;0.00;0.00;;;15.70;55.90;;;;;;4195120;28;20040;-44
2021/04/02 11:12:03;;;;;;;0.00;0.00;;;15.70;56.70;;;;;;4195315;28;20053;-44
2021/04/02 11:14:24;;;;;;;0.00;0.00;;;15.70;56.40;;;;;;4193752;28;20104;-44
2021/04/02 11:16:46;;;;;;;0.00;0.00;;;15.80;56.40;;;;;;4195150;28;20079;-46
2021/04/02 11:19:07;;;;;;;0.00;0.00;;;16.00;56.10;;;;;;4195293;28;20773;-44
2021/04/02 11:21:28;;;;;;;0.00;0.00;;;16.10;55.70;;;;;;4193848;28;20067;-43
2021/04/02 11:23:49;;;;;;;0.00;0.00;;;16.20;55.40;;;;;;4194948;28;20127;-44
2021/04/02 11:26:11;;;;;;;0.00;0.00;;;16.20;55.20;;;;;;4195356;28;20159;-45
2021/04/02 11:28:32;;;;;;;0.00;0.00;;;16.20;55.20;;;;;;4195934;28;20484;-44
2021/04/02 11:30:54;;;;;;;;;;;16.20;55.20;;;;;;4198671;28;20087;-44
2021/04/02 11:33:15;;;;;;;0.08;0.08;;;16.20;55.20;;;;;;4196022;28;19924;-44
2021/04/02 11:35:36;;;;;;;0.00;0.00;;;16.20;55.40;;;;;;4198378;28;20134;-45
2021/04/02 11:37:58;;;;;;;1.38;0.82;;;16.20;56.10;;;;;;4198377;28;20145;-45
2021/04/02 11:40:19;;;;;;;0.00;0.00;;;16.20;55.40;;;;;;4197850;28;20045;-44
2021/04/02 11:42:40;;;;;;;;;;;16.20;55.10;;;;;;4197862;28;20048;-45
2021/04/02 11:45:02;;;;;;;0.00;0.00;;;16.20;55.00;;;;;;4197658;28;20374;-44
2021/04/02 11:47:23;;;;;;;0.40;0.40;;;16.10;55.20;;;;;;4198220;28;20099;-44
2021/04/02 11:49:45;;;;;;;0.00;0.00;;;16.00;54.90;;;;;;4197770;28;20049;-46
2021/04/02 11:52:07;;;;;;;3.40;1.65;;;16.00;54.80;;;;;;4186421;28;20507;-45
2021/04/02 11:54:28;;;;;;;0.30;0.30;;;16.10;54.80;;;;;;4197891;28;20048;-44
2021/04/02 11:56:49;;;;;;;0.00;0.00;;;16.20;54.40;;;;;;4198318;28;20048;-46
2021/04/02 11:59:11;;;;;;;1.25;1.23;;;16.20;54.30;;;;;;4197814;28;20059;-48
2021/04/02 12:01:32;;;;;;;0.00;0.00;;;16.20;54.30;;;;;;4198170;28;20380;-45
2021/04/02 12:03:53;;;;;;;0.00;0.00;;;16.20;54.50;;;;;;4197304;28;20400;-44
2021/04/02 12:06:16;;;;;;;0.00;0.00;;;16.10;54.70;;;;;;4197447;28;20053;-47
2021/04/02 12:08:37;;;;;;;0.00;0.00;;;16.10;54.90;;;;;;4181414;28;20057;-50
2021/04/02 12:10:58;;;;;;;0.30;0.30;;;16.00;55.00;;;;;;4190260;28;20127;-46
2021/04/02 12:13:19;;;;;;;0.00;0.00;;;16.10;54.90;;;;;;4197633;28;20052;-50
2021/04/02 12:15:40;;;;;;;0.08;0.08;;;16.20;54.60;;;;;;4197690;28;20453;-45
2021/04/02 12:18:02;;;;;;;0.03;0.03;;;16.40;54.40;;;;;;4197998;28;20083;-44
2021/04/02 12:20:23;;;;;;;0.40;0.40;;;16.40;54.10;;;;;;4197101;28;20630;-44
2021/04/02 12:22:45;;;;;;;;;;;16.40;54.00;;;;;;4197609;28;20048;-44
2021/04/02 12:25:07;;;;;;;;;;;16.40;54.10;;;;;;4197727;28;19930;-45
2021/04/02 12:27:28;;;;;;;0.10;0.10;;;16.40;54.20;;;;;;4197687;28;19929;-47